sensor_id;sensor_type;location;lat;lon;timestamp;temperature;humidity
11067;DHT22;29763;50.904;5.530;2023-01-01T00:00:30;15.30;99.90
11067;DHT22;29763;50.904;5.530;2023-01-01T00:02:57;15.20;99.90
11067;DHT22;29763;50.904;5.530;2023-01-01T00:05:23;15.10;99.90
11067;DHT22;29763;50.904;5.530;2023-01-01T00:07:51;15.00;99.90
11067;DHT22;29763;50.904;5.530;2023-01-01T00:10:16;15.00;99.90
11067;DHT22;29763;50.904;5.530;2023-01-01T00:12:58;15.00;99.90
11067;DHT22;29763;50.904;5.530;2023-01-01T00:15:25;14.90;99.90
11067;DHT22;29763;50.904;5.530;2023-01-01T00:17:51;14.90;99.90
11067;DHT22;29763;50.904;5.530;2023-01-01T00:20:20;14.90;99.90
11067;DHT22;29763;50.904;5.530;2023-01-01T00:22:56;14.90;99.90
11067;DHT22;29763;50.904;5.530;2023-01-01T00:25:23;14.90;99.90
11067;DHT22;29763;50.904;5.530;2023-01-01T00:27:49;14.90;99.90
11067;DHT22;29763;50.904;5.530;2023-01-01T00:30:14;14.90;99.90
11067;DHT22;29763;50.904;5.530;2023-01-01T00:32:40;14.90;99.90
11067;DHT22;29763;50.904;5.530;2023-01-01T00:35:06;14.90;99.90
11067;DHT22;29763;50.904;5.530;2023-01-01T00:37:33;14.80;99.90
11067;DHT22;29763;50.904;5.530;2023-01-01T00:40:00;14.80;99.90
11067;DHT22;29763;50.904;5.530;2023-01-01T00:42:25;14.90;99.90
11067;DHT22;29763;50.904;5.530;2023-01-01T00:44:51;14.90;99.90
11067;DHT22;29763;50.904;5.530;2023-01-01T00:47:18;14.90;99.90
11067;DHT22;29763;50.904;5.530;2023-01-01T00:49:43;14.80;99.90
11067;DHT22;29763;50.904;5.530;2023-01-01T00:52:09;14.80;99.90
11067;DHT22;29763;50.904;5.530;2023-01-01T00:54:35;14.90;99.90
11067;DHT22;29763;50.904;5.530;2023-01-01T00:57:00;14.80;99.90
11067;DHT22;29763;50.904;5.530;2023-01-01T00:59:26;14.80;99.90
11067;DHT22;29763;50.904;5.530;2023-01-01T01:01:52;14.80;99.90
11067;DHT22;29763;50.904;5.530;2023-01-01T01:04:24;14.70;99.90
11067;DHT22;29763;50.904;5.530;2023-01-01T01:06:50;14.70;99.90
11067;DHT22;29763;50.904;5.530;2023-01-01T01:09:15;14.70;99.90
11067;DHT22;29763;50.904;5.530;2023-01-01T01:11:43;14.60;99.90
11067;DHT22;29763;50.904;5.530;2023-01-01T01:14:08;14.60;99.90
11067;DHT22;29763;50.904;5.530;2023-01-01T01:16:34;14.60;99.90
11067;DHT22;29763;50.904;5.530;2023-01-01T01:19:02;14.60;99.90
11067;DHT22;29763;50.904;5.530;2023-01-01T01:21:30;14.70;99.90
11067;DHT22;29763;50.904;5.530;2023-01-01T01:23:57;14.70;99.90
11067;DHT22;29763;50.904;5.530;2023-01-01T01:26:29;14.70;99.90
11067;DHT22;29763;50.904;5.530;2023-01-01T01:28:56;14.70;99.90
11067;DHT22;29763;50.904;5.530;2023-01-01T01:31:23;14.80;99.90
11067;DHT22;29763;50.904;5.530;2023-01-01T01:33:52;14.70;99.90
11067;DHT22;29763;50.904;5.530;2023-01-01T01:36:18;14.80;99.90
11067;DHT22;29763;50.904;5.530;2023-01-01T01:38:45;14.80;99.90
11067;DHT22;29763;50.904;5.530;2023-01-01T01:41:14;14.80;99.90
11067;DHT22;29763;50.904;5.530;2023-01-01T01:49:28;14.80;99.90
11067;DHT22;29763;50.904;5.530;2023-01-01T01:51:56;14.70;99.90
11067;DHT22;29763;50.904;5.530;2023-01-01T01:54:25;14.80;99.90
11067;DHT22;29763;50.904;5.530;2023-01-01T01:57:05;14.80;99.90
11067;DHT22;29763;50.904;5.530;2023-01-01T01:59:35;14.80;99.90
11067;DHT22;29763;50.904;5.530;2023-01-01T02:02:08;14.70;99.90
11067;DHT22;29763;50.904;5.530;2023-01-01T02:04:37;14.70;99.90
11067;DHT22;29763;50.904;5.530;2023-01-01T02:07:02;14.70;99.90
11067;DHT22;29763;50.904;5.530;2023-01-01T02:09:29;14.70;99.90
11067;DHT22;29763;50.904;5.530;2023-01-01T02:11:55;14.60;99.90
11067;DHT22;29763;50.904;5.530;2023-01-01T02:14:41;14.70;99.90
11067;DHT22;29763;50.904;5.530;2023-01-01T02:17:19;14.70;99.90
11067;DHT22;29763;50.904;5.530;2023-01-01T02:23:27;14.60;99.90
11067;DHT22;29763;50.904;5.530;2023-01-01T02:29:27;14.70;99.90
11067;DHT22;29763;50.904;5.530;2023-01-01T02:38:27;14.60;99.90
11067;DHT22;29763;50.904;5.530;2023-01-01T02:41:01;14.60;99.90
11067;DHT22;29763;50.904;5.530;2023-01-01T02:43:27;14.60;99.90
11067;DHT22;29763;50.904;5.530;2023-01-01T02:45:54;14.60;99.90
11067;DHT22;29763;50.904;5.530;2023-01-01T02:48:48;14.60;99.90
11067;DHT22;29763;50.904;5.530;2023-01-01T02:56:50;14.60;99.90
11067;DHT22;29763;50.904;5.530;2023-01-01T03:02:52;14.40;99.90
11067;DHT22;29763;50.904;5.530;2023-01-01T03:16:30;14.40;99.90
11067;DHT22;29763;50.904;5.530;2023-01-01T03:19:14;14.40;99.90
11067;DHT22;29763;50.904;5.530;2023-01-01T03:22:01;14.50;99.90
11067;DHT22;29763;50.904;5.530;2023-01-01T03:24:35;14.50;99.90
11067;DHT22;29763;50.904;5.530;2023-01-01T03:27:08;14.50;99.90
11067;DHT22;29763;50.904;5.530;2023-01-01T03:29:41;14.50;99.90
11067;DHT22;29763;50.904;5.530;2023-01-01T03:32:15;14.50;99.90
11067;DHT22;29763;50.904;5.530;2023-01-01T03:34:51;14.40;99.90
11067;DHT22;29763;50.904;5.530;2023-01-01T03:37:25;14.40;99.90
11067;DHT22;29763;50.904;5.530;2023-01-01T03:39:53;14.40;99.90
11067;DHT22;29763;50.904;5.530;2023-01-01T03:42:30;14.40;99.90
11067;DHT22;29763;50.904;5.530;2023-01-01T03:47:46;14.40;99.90
11067;DHT22;29763;50.904;5.530;2023-01-01T03:50:13;14.40;99.90
11067;DHT22;29763;50.904;5.530;2023-01-01T03:52:56;14.40;99.90
11067;DHT22;29763;50.904;5.530;2023-01-01T03:58:09;14.40;99.90
11067;DHT22;29763;50.904;5.530;2023-01-01T04:01:03;14.40;99.90
11067;DHT22;29763;50.904;5.530;2023-01-01T04:03:34;14.40;99.90
11067;DHT22;29763;50.904;5.530;2023-01-01T04:06:02;14.40;99.90
11067;DHT22;29763;50.904;5.530;2023-01-01T04:08:37;14.50;99.90
11067;DHT22;29763;50.904;5.530;2023-01-01T04:11:10;14.40;99.90
11067;DHT22;29763;50.904;5.530;2023-01-01T04:13:57;14.40;99.90
11067;DHT22;29763;50.904;5.530;2023-01-01T04:16:23;14.40;99.90
11067;DHT22;29763;50.904;5.530;2023-01-01T04:18:49;14.40;99.90
11067;DHT22;29763;50.904;5.530;2023-01-01T04:21:14;14.40;99.90
11067;DHT22;29763;50.904;5.530;2023-01-01T04:23:44;14.40;99.90
11067;DHT22;29763;50.904;5.530;2023-01-01T04:26:17;14.40;99.90
11067;DHT22;29763;50.904;5.530;2023-01-01T04:28:43;14.30;99.90
11067;DHT22;29763;50.904;5.530;2023-01-01T04:31:09;14.20;99.90
11067;DHT22;29763;50.904;5.530;2023-01-01T04:33:37;14.20;99.90
11067;DHT22;29763;50.904;5.530;2023-01-01T04:36:08;14.20;99.90
11067;DHT22;29763;50.904;5.530;2023-01-01T04:38:48;14.10;99.90
11067;DHT22;29763;50.904;5.530;2023-01-01T04:41:45;14.10;99.90
11067;DHT22;29763;50.904;5.530;2023-01-01T04:44:49;14.10;99.90
11067;DHT22;29763;50.904;5.530;2023-01-01T04:47:23;14.10;99.90
11067;DHT22;29763;50.904;5.530;2023-01-01T04:50:18;14.10;99.90
11067;DHT22;29763;50.904;5.530;2023-01-01T04:52:51;14.10;99.90
11067;DHT22;29763;50.904;5.530;2023-01-01T04:55:22;14.10;99.90
11067;DHT22;29763;50.904;5.530;2023-01-01T04:57:48;14.20;99.90
11067;DHT22;29763;50.904;5.530;2023-01-01T05:00:14;14.20;99.90
11067;DHT22;29763;50.904;5.530;2023-01-01T05:02:39;14.10;99.90
11067;DHT22;29763;50.904;5.530;2023-01-01T05:05:06;14.10;99.90
11067;DHT22;29763;50.904;5.530;2023-01-01T05:07:32;14.10;99.90
11067;DHT22;29763;50.904;5.530;2023-01-01T05:09:58;14.10;99.90
11067;DHT22;29763;50.904;5.530;2023-01-01T05:12:24;14.10;99.90
11067;DHT22;29763;50.904;5.530;2023-01-01T05:14:50;14.10;99.90
11067;DHT22;29763;50.904;5.530;2023-01-01T05:17:16;14.20;99.90
11067;DHT22;29763;50.904;5.530;2023-01-01T05:19:48;14.10;99.90
11067;DHT22;29763;50.904;5.530;2023-01-01T05:22:13;14.10;99.90
11067;DHT22;29763;50.904;5.530;2023-01-01T05:24:39;14.20;99.90
11067;DHT22;29763;50.904;5.530;2023-01-01T05:27:06;14.20;99.90
11067;DHT22;29763;50.904;5.530;2023-01-01T05:29:33;14.20;99.90
11067;DHT22;29763;50.904;5.530;2023-01-01T05:31:58;14.20;99.90
11067;DHT22;29763;50.904;5.530;2023-01-01T05:34:24;14.30;99.90
11067;DHT22;29763;50.904;5.530;2023-01-01T05:36:51;14.20;99.90
11067;DHT22;29763;50.904;5.530;2023-01-01T05:39:17;14.20;99.90
11067;DHT22;29763;50.904;5.530;2023-01-01T05:41:42;14.20;99.90
11067;DHT22;29763;50.904;5.530;2023-01-01T05:44:08;14.10;99.90
11067;DHT22;29763;50.904;5.530;2023-01-01T05:46:36;14.20;99.90
11067;DHT22;29763;50.904;5.530;2023-01-01T05:49:02;14.20;99.90
11067;DHT22;29763;50.904;5.530;2023-01-01T05:51:29;14.20;99.90
11067;DHT22;29763;50.904;5.530;2023-01-01T05:54:00;14.10;99.90
11067;DHT22;29763;50.904;5.530;2023-01-01T05:56:26;14.10;99.90
11067;DHT22;29763;50.904;5.530;2023-01-01T05:58:52;14.10;99.90
11067;DHT22;29763;50.904;5.530;2023-01-01T06:01:23;14.10;99.90
11067;DHT22;29763;50.904;5.530;2023-01-01T06:03:52;14.10;99.90
11067;DHT22;29763;50.904;5.530;2023-01-01T06:06:20;14.10;99.90
11067;DHT22;29763;50.904;5.530;2023-01-01T06:08:58;14.10;99.90
11067;DHT22;29763;50.904;5.530;2023-01-01T06:11:24;14.10;99.90
11067;DHT22;29763;50.904;5.530;2023-01-01T06:13:52;14.10;99.90
11067;DHT22;29763;50.904;5.530;2023-01-01T06:16:18;14.10;99.90
11067;DHT22;29763;50.904;5.530;2023-01-01T06:18:44;14.10;99.90
11067;DHT22;29763;50.904;5.530;2023-01-01T06:21:15;14.10;99.90
11067;DHT22;29763;50.904;5.530;2023-01-01T06:23:41;14.10;99.90
11067;DHT22;29763;50.904;5.530;2023-01-01T06:28:57;14.00;99.90
11067;DHT22;29763;50.904;5.530;2023-01-01T06:31:25;13.90;99.90
11067;DHT22;29763;50.904;5.530;2023-01-01T06:33:56;13.90;99.90
11067;DHT22;29763;50.904;5.530;2023-01-01T06:36:23;13.80;99.90
11067;DHT22;29763;50.904;5.530;2023-01-01T06:38:52;13.80;99.90
11067;DHT22;29763;50.904;5.530;2023-01-01T06:41:21;13.80;99.90
11067;DHT22;29763;50.904;5.530;2023-01-01T06:43:47;13.70;99.90
11067;DHT22;29763;50.904;5.530;2023-01-01T06:48:58;13.70;99.90
11067;DHT22;29763;50.904;5.530;2023-01-01T06:51:27;13.70;99.90
11067;DHT22;29763;50.904;5.530;2023-01-01T06:53:53;13.60;99.90
11067;DHT22;29763;50.904;5.530;2023-01-01T06:56:20;13.50;99.90
11067;DHT22;29763;50.904;5.530;2023-01-01T06:58:46;13.40;99.90
11067;DHT22;29763;50.904;5.530;2023-01-01T07:01:17;13.40;99.90
11067;DHT22;29763;50.904;5.530;2023-01-01T07:10:55;13.20;99.90
11067;DHT22;29763;50.904;5.530;2023-01-01T07:13:25;13.20;99.90
11067;DHT22;29763;50.904;5.530;2023-01-01T07:15:51;13.20;99.90
11067;DHT22;29763;50.904;5.530;2023-01-01T07:18:22;13.10;99.90
11067;DHT22;29763;50.904;5.530;2023-01-01T07:20:59;13.10;99.90
11067;DHT22;29763;50.904;5.530;2023-01-01T07:23:28;13.10;99.90
11067;DHT22;29763;50.904;5.530;2023-01-01T07:26:00;13.10;99.90
11067;DHT22;29763;50.904;5.530;2023-01-01T07:28:27;13.10;99.90
11067;DHT22;29763;50.904;5.530;2023-01-01T07:30:53;13.10;99.90
11067;DHT22;29763;50.904;5.530;2023-01-01T07:33:21;13.20;99.90
11067;DHT22;29763;50.904;5.530;2023-01-01T07:35:47;13.40;99.90
11067;DHT22;29763;50.904;5.530;2023-01-01T07:38:13;13.30;99.90
11067;DHT22;29763;50.904;5.530;2023-01-01T07:40:40;13.20;99.90
11067;DHT22;29763;50.904;5.530;2023-01-01T07:43:07;13.20;99.90
11067;DHT22;29763;50.904;5.530;2023-01-01T07:45:34;13.10;99.90
11067;DHT22;29763;50.904;5.530;2023-01-01T07:48:00;13.00;99.90
11067;DHT22;29763;50.904;5.530;2023-01-01T07:50:28;13.00;99.90
11067;DHT22;29763;50.904;5.530;2023-01-01T07:52:55;13.00;99.90
11067;DHT22;29763;50.904;5.530;2023-01-01T07:55:21;13.00;99.90
11067;DHT22;29763;50.904;5.530;2023-01-01T07:57:47;13.00;99.90
11067;DHT22;29763;50.904;5.530;2023-01-01T08:00:18;13.00;99.90
11067;DHT22;29763;50.904;5.530;2023-01-01T08:02:45;13.00;99.90
11067;DHT22;29763;50.904;5.530;2023-01-01T08:05:11;13.00;99.90
11067;DHT22;29763;50.904;5.530;2023-01-01T08:07:37;13.10;99.90
11067;DHT22;29763;50.904;5.530;2023-01-01T08:10:05;13.10;99.90
11067;DHT22;29763;50.904;5.530;2023-01-01T08:12:31;13.10;99.90
11067;DHT22;29763;50.904;5.530;2023-01-01T08:14:57;13.20;99.90
11067;DHT22;29763;50.904;5.530;2023-01-01T08:17:23;13.20;99.90
11067;DHT22;29763;50.904;5.530;2023-01-01T08:19:49;13.20;99.90
11067;DHT22;29763;50.904;5.530;2023-01-01T08:22:16;13.20;99.90
11067;DHT22;29763;50.904;5.530;2023-01-01T08:24:42;13.20;99.90
11067;DHT22;29763;50.904;5.530;2023-01-01T08:27:13;13.30;99.90
11067;DHT22;29763;50.904;5.530;2023-01-01T08:29:40;13.20;99.90
11067;DHT22;29763;50.904;5.530;2023-01-01T08:32:06;13.30;99.90
11067;DHT22;29763;50.904;5.530;2023-01-01T08:34:31;13.30;99.90
11067;DHT22;29763;50.904;5.530;2023-01-01T08:36:57;13.30;99.90
11067;DHT22;29763;50.904;5.530;2023-01-01T08:39:24;13.30;99.90
11067;DHT22;29763;50.904;5.530;2023-01-01T08:41:50;13.40;99.90
11067;DHT22;29763;50.904;5.530;2023-01-01T08:44:16;13.30;99.90
11067;DHT22;29763;50.904;5.530;2023-01-01T08:46:41;13.30;99.90
11067;DHT22;29763;50.904;5.530;2023-01-01T08:49:07;13.40;99.90
11067;DHT22;29763;50.904;5.530;2023-01-01T08:51:33;13.40;99.90
11067;DHT22;29763;50.904;5.530;2023-01-01T08:53:58;13.40;99.90
11067;DHT22;29763;50.904;5.530;2023-01-01T08:56:24;13.40;99.90
11067;DHT22;29763;50.904;5.530;2023-01-01T08:58:50;13.40;99.90
11067;DHT22;29763;50.904;5.530;2023-01-01T09:01:16;13.50;99.90
11067;DHT22;29763;50.904;5.530;2023-01-01T09:03:41;13.50;99.90
11067;DHT22;29763;50.904;5.530;2023-01-01T09:06:07;13.50;99.90
11067;DHT22;29763;50.904;5.530;2023-01-01T09:08:33;13.50;99.90
11067;DHT22;29763;50.904;5.530;2023-01-01T09:11:01;13.50;99.90
11067;DHT22;29763;50.904;5.530;2023-01-01T09:13:27;13.60;99.90
11067;DHT22;29763;50.904;5.530;2023-01-01T09:15:53;13.60;99.90
11067;DHT22;29763;50.904;5.530;2023-01-01T09:18:19;13.60;99.90
11067;DHT22;29763;50.904;5.530;2023-01-01T09:20:45;13.70;99.90
11067;DHT22;29763;50.904;5.530;2023-01-01T09:23:12;13.70;99.90
11067;DHT22;29763;50.904;5.530;2023-01-01T09:25:38;13.60;99.90
11067;DHT22;29763;50.904;5.530;2023-01-01T09:28:07;13.70;99.90
11067;DHT22;29763;50.904;5.530;2023-01-01T09:30:34;13.70;99.90
11067;DHT22;29763;50.904;5.530;2023-01-01T09:33:00;13.70;99.90
11067;DHT22;29763;50.904;5.530;2023-01-01T09:35:26;13.70;99.90
11067;DHT22;29763;50.904;5.530;2023-01-01T09:37:53;13.70;99.90
11067;DHT22;29763;50.904;5.530;2023-01-01T09:43:42;13.60;99.90
11067;DHT22;29763;50.904;5.530;2023-01-01T09:46:11;13.70;99.90
11067;DHT22;29763;50.904;5.530;2023-01-01T09:48:51;13.70;99.90
11067;DHT22;29763;50.904;5.530;2023-01-01T09:51:19;13.70;99.90
11067;DHT22;29763;50.904;5.530;2023-01-01T09:56:44;13.70;99.90
11067;DHT22;29763;50.904;5.530;2023-01-01T09:59:10;13.80;99.90
11067;DHT22;29763;50.904;5.530;2023-01-01T10:04:44;13.80;99.90
11067;DHT22;29763;50.904;5.530;2023-01-01T10:15:44;14.00;99.90
11067;DHT22;29763;50.904;5.530;2023-01-01T10:18:23;14.10;99.90
11067;DHT22;29763;50.904;5.530;2023-01-01T10:23:29;14.10;99.90
11067;DHT22;29763;50.904;5.530;2023-01-01T10:26:06;14.10;99.90
11067;DHT22;29763;50.904;5.530;2023-01-01T10:33:45;14.20;99.90
11067;DHT22;29763;50.904;5.530;2023-01-01T10:36:14;14.10;99.90
11067;DHT22;29763;50.904;5.530;2023-01-01T10:38:41;14.10;99.90
11067;DHT22;29763;50.904;5.530;2023-01-01T10:41:08;14.10;99.90
11067;DHT22;29763;50.904;5.530;2023-01-01T10:43:35;14.20;99.90
11067;DHT22;29763;50.904;5.530;2023-01-01T10:46:02;14.20;99.90
11067;DHT22;29763;50.904;5.530;2023-01-01T10:48:30;14.20;99.90
11067;DHT22;29763;50.904;5.530;2023-01-01T10:51:00;14.30;99.90
11067;DHT22;29763;50.904;5.530;2023-01-01T10:59:45;14.50;99.90
11067;DHT22;29763;50.904;5.530;2023-01-01T11:02:18;14.50;99.90
11067;DHT22;29763;50.904;5.530;2023-01-01T11:04:44;14.50;99.90
11067;DHT22;29763;50.904;5.530;2023-01-01T11:07:29;14.50;99.90
11067;DHT22;29763;50.904;5.530;2023-01-01T11:10:00;14.60;99.90
11067;DHT22;29763;50.904;5.530;2023-01-01T11:12:30;14.50;99.90
11067;DHT22;29763;50.904;5.530;2023-01-01T11:14:58;14.50;99.90
11067;DHT22;29763;50.904;5.530;2023-01-01T11:17:26;14.60;99.90
11067;DHT22;29763;50.904;5.530;2023-01-01T11:19:53;14.50;99.90
11067;DHT22;29763;50.904;5.530;2023-01-01T11:22:42;14.60;99.90
11067;DHT22;29763;50.904;5.530;2023-01-01T11:25:19;14.70;99.90
11067;DHT22;29763;50.904;5.530;2023-01-01T11:27:45;14.60;99.90
11067;DHT22;29763;50.904;5.530;2023-01-01T11:30:29;14.60;99.90
11067;DHT22;29763;50.904;5.530;2023-01-01T11:32:59;14.60;99.90
11067;DHT22;29763;50.904;5.530;2023-01-01T11:35:28;14.70;99.90
11067;DHT22;29763;50.904;5.530;2023-01-01T11:37:55;14.70;99.90
11067;DHT22;29763;50.904;5.530;2023-01-01T11:40:37;14.80;99.90
11067;DHT22;29763;50.904;5.530;2023-01-01T11:43:04;14.80;99.90
11067;DHT22;29763;50.904;5.530;2023-01-01T11:45:38;14.80;99.90
11067;DHT22;29763;50.904;5.530;2023-01-01T11:48:12;14.90;99.90
11067;DHT22;29763;50.904;5.530;2023-01-01T11:50:40;14.90;99.90
11067;DHT22;29763;50.904;5.530;2023-01-01T11:56:19;14.70;99.90
11067;DHT22;29763;50.904;5.530;2023-01-01T11:59:01;14.70;99.90
11067;DHT22;29763;50.904;5.530;2023-01-01T12:01:46;14.60;99.90
11067;DHT22;29763;50.904;5.530;2023-01-01T12:04:18;14.60;99.90
11067;DHT22;29763;50.904;5.530;2023-01-01T12:07:07;14.60;99.90
11067;DHT22;29763;50.904;5.530;2023-01-01T12:09:51;14.60;99.90
11067;DHT22;29763;50.904;5.530;2023-01-01T12:12:25;14.50;99.90
11067;DHT22;29763;50.904;5.530;2023-01-01T12:17:50;14.50;99.90
11067;DHT22;29763;50.904;5.530;2023-01-01T12:20:24;14.40;99.90
11067;DHT22;29763;50.904;5.530;2023-01-01T12:22:53;14.40;99.90
11067;DHT22;29763;50.904;5.530;2023-01-01T12:25:20;14.40;99.90
11067;DHT22;29763;50.904;5.530;2023-01-01T12:36:18;14.30;99.90
11067;DHT22;29763;50.904;5.530;2023-01-01T12:41:50;14.40;99.90
11067;DHT22;29763;50.904;5.530;2023-01-01T12:46:55;14.30;99.90
11067;DHT22;29763;50.904;5.530;2023-01-01T12:49:52;14.30;99.90
11067;DHT22;29763;50.904;5.530;2023-01-01T12:55:22;14.30;99.90
11067;DHT22;29763;50.904;5.530;2023-01-01T12:58:23;14.20;99.90
11067;DHT22;29763;50.904;5.530;2023-01-01T13:01:21;14.20;99.90
11067;DHT22;29763;50.904;5.530;2023-01-01T13:03:56;14.10;99.90
11067;DHT22;29763;50.904;5.530;2023-01-01T13:06:44;14.10;99.90
11067;DHT22;29763;50.904;5.530;2023-01-01T13:09:25;14.10;99.90
11067;DHT22;29763;50.904;5.530;2023-01-01T13:14:39;14.20;99.90
11067;DHT22;29763;50.904;5.530;2023-01-01T13:19:47;14.10;99.90
11067;DHT22;29763;50.904;5.530;2023-01-01T13:33:27;14.10;99.90
11067;DHT22;29763;50.904;5.530;2023-01-01T13:38:47;14.00;99.90
11067;DHT22;29763;50.904;5.530;2023-01-01T13:47:02;14.00;99.90
11067;DHT22;29763;50.904;5.530;2023-01-01T13:49:42;14.00;99.90
11067;DHT22;29763;50.904;5.530;2023-01-01T14:03:13;14.00;99.90
11067;DHT22;29763;50.904;5.530;2023-01-01T14:05:52;14.00;99.90
11067;DHT22;29763;50.904;5.530;2023-01-01T14:10:51;13.90;99.90
11067;DHT22;29763;50.904;5.530;2023-01-01T14:13:18;13.80;99.90
11067;DHT22;29763;50.904;5.530;2023-01-01T14:16:01;13.80;99.90
11067;DHT22;29763;50.904;5.530;2023-01-01T14:18:35;13.70;99.90
11067;DHT22;29763;50.904;5.530;2023-01-01T14:21:10;13.70;99.90
11067;DHT22;29763;50.904;5.530;2023-01-01T14:23:47;13.70;99.90
11067;DHT22;29763;50.904;5.530;2023-01-01T14:26:22;13.70;99.90
11067;DHT22;29763;50.904;5.530;2023-01-01T14:28:53;13.70;99.90
11067;DHT22;29763;50.904;5.530;2023-01-01T14:31:23;13.60;99.90
11067;DHT22;29763;50.904;5.530;2023-01-01T14:33:51;13.60;99.90
11067;DHT22;29763;50.904;5.530;2023-01-01T14:36:29;13.60;99.90
11067;DHT22;29763;50.904;5.530;2023-01-01T14:38:57;13.50;99.90
11067;DHT22;29763;50.904;5.530;2023-01-01T14:41:28;13.40;99.90
11067;DHT22;29763;50.904;5.530;2023-01-01T14:46:45;13.30;99.90
11067;DHT22;29763;50.904;5.530;2023-01-01T14:49:28;13.30;99.90
11067;DHT22;29763;50.904;5.530;2023-01-01T14:52:01;13.20;99.90
11067;DHT22;29763;50.904;5.530;2023-01-01T14:54:36;13.10;99.90
11067;DHT22;29763;50.904;5.530;2023-01-01T14:57:18;13.00;99.90
11067;DHT22;29763;50.904;5.530;2023-01-01T14:59:47;13.00;99.90
11067;DHT22;29763;50.904;5.530;2023-01-01T15:02:15;13.00;99.90
11067;DHT22;29763;50.904;5.530;2023-01-01T15:04:42;12.90;99.90
11067;DHT22;29763;50.904;5.530;2023-01-01T15:07:21;12.90;99.90
11067;DHT22;29763;50.904;5.530;2023-01-01T15:09:48;12.80;99.90
11067;DHT22;29763;50.904;5.530;2023-01-01T15:12:15;12.70;99.90
11067;DHT22;29763;50.904;5.530;2023-01-01T15:14:44;12.80;99.90
11067;DHT22;29763;50.904;5.530;2023-01-01T15:17:12;12.60;99.90
11067;DHT22;29763;50.904;5.530;2023-01-01T15:19:40;12.70;99.90
11067;DHT22;29763;50.904;5.530;2023-01-01T15:22:26;12.60;99.90
11067;DHT22;29763;50.904;5.530;2023-01-01T15:24:58;12.60;99.90
11067;DHT22;29763;50.904;5.530;2023-01-01T15:27:26;12.50;99.90
11067;DHT22;29763;50.904;5.530;2023-01-01T15:29:52;12.50;99.90
11067;DHT22;29763;50.904;5.530;2023-01-01T15:32:47;12.50;99.90
11067;DHT22;29763;50.904;5.530;2023-01-01T15:35:30;12.40;99.90
11067;DHT22;29763;50.904;5.530;2023-01-01T15:38:09;12.40;99.90
11067;DHT22;29763;50.904;5.530;2023-01-01T15:40:36;12.30;99.90
11067;DHT22;29763;50.904;5.530;2023-01-01T15:45:34;12.20;99.90
11067;DHT22;29763;50.904;5.530;2023-01-01T15:53:23;12.10;99.90
11067;DHT22;29763;50.904;5.530;2023-01-01T15:56:04;12.10;99.90
11067;DHT22;29763;50.904;5.530;2023-01-01T16:01:33;12.10;99.90
11067;DHT22;29763;50.904;5.530;2023-01-01T16:07:14;12.00;99.90
11067;DHT22;29763;50.904;5.530;2023-01-01T16:09:41;12.00;99.90
11067;DHT22;29763;50.904;5.530;2023-01-01T16:12:08;11.90;99.90
11067;DHT22;29763;50.904;5.530;2023-01-01T16:14:34;11.90;99.90
11067;DHT22;29763;50.904;5.530;2023-01-01T16:17:00;11.90;99.90
11067;DHT22;29763;50.904;5.530;2023-01-01T16:19:31;11.90;99.90
11067;DHT22;29763;50.904;5.530;2023-01-01T16:21:57;11.90;99.90
11067;DHT22;29763;50.904;5.530;2023-01-01T16:24:23;11.80;99.90
11067;DHT22;29763;50.904;5.530;2023-01-01T16:26:49;11.80;99.90
11067;DHT22;29763;50.904;5.530;2023-01-01T16:29:16;11.80;99.90
11067;DHT22;29763;50.904;5.530;2023-01-01T16:31:42;11.70;99.90
11067;DHT22;29763;50.904;5.530;2023-01-01T16:34:12;11.70;99.90
11067;DHT22;29763;50.904;5.530;2023-01-01T16:36:38;11.70;99.90
11067;DHT22;29763;50.904;5.530;2023-01-01T16:39:04;11.70;99.90
11067;DHT22;29763;50.904;5.530;2023-01-01T16:41:30;11.60;99.90
11067;DHT22;29763;50.904;5.530;2023-01-01T16:43:56;11.60;99.90
11067;DHT22;29763;50.904;5.530;2023-01-01T16:46:22;11.60;99.90
11067;DHT22;29763;50.904;5.530;2023-01-01T16:48:48;11.60;99.90
11067;DHT22;29763;50.904;5.530;2023-01-01T16:51:26;11.60;99.90
11067;DHT22;29763;50.904;5.530;2023-01-01T16:53:52;11.50;99.90
11067;DHT22;29763;50.904;5.530;2023-01-01T16:56:18;11.50;99.90
11067;DHT22;29763;50.904;5.530;2023-01-01T16:58:44;11.50;99.90
11067;DHT22;29763;50.904;5.530;2023-01-01T17:01:10;11.50;99.90
11067;DHT22;29763;50.904;5.530;2023-01-01T17:07:00;11.50;99.90
11067;DHT22;29763;50.904;5.530;2023-01-01T17:09:32;11.50;99.90
11067;DHT22;29763;50.904;5.530;2023-01-01T17:11:58;11.40;99.90
11067;DHT22;29763;50.904;5.530;2023-01-01T17:14:24;11.40;99.90
11067;DHT22;29763;50.904;5.530;2023-01-01T17:16:50;11.40;99.90
11067;DHT22;29763;50.904;5.530;2023-01-01T17:19:20;11.40;99.90
11067;DHT22;29763;50.904;5.530;2023-01-01T17:21:48;11.40;99.90
11067;DHT22;29763;50.904;5.530;2023-01-01T17:24:17;11.40;99.90
11067;DHT22;29763;50.904;5.530;2023-01-01T17:26:43;11.40;99.90
11067;DHT22;29763;50.904;5.530;2023-01-01T17:29:09;11.40;99.90
11067;DHT22;29763;50.904;5.530;2023-01-01T17:31:37;11.40;99.90
11067;DHT22;29763;50.904;5.530;2023-01-01T17:34:03;11.40;99.90
11067;DHT22;29763;50.904;5.530;2023-01-01T17:36:32;11.40;99.90
11067;DHT22;29763;50.904;5.530;2023-01-01T17:38:58;11.40;99.90
11067;DHT22;29763;50.904;5.530;2023-01-01T17:41:24;11.40;99.90
11067;DHT22;29763;50.904;5.530;2023-01-01T17:43:50;11.30;99.90
11067;DHT22;29763;50.904;5.530;2023-01-01T17:46:19;11.30;99.90
11067;DHT22;29763;50.904;5.530;2023-01-01T17:48:45;11.30;99.90
11067;DHT22;29763;50.904;5.530;2023-01-01T17:51:12;11.30;99.90
11067;DHT22;29763;50.904;5.530;2023-01-01T17:53:38;11.30;99.90
11067;DHT22;29763;50.904;5.530;2023-01-01T17:56:11;11.30;99.90
11067;DHT22;29763;50.904;5.530;2023-01-01T17:58:42;11.30;99.90
11067;DHT22;29763;50.904;5.530;2023-01-01T18:03:53;11.30;99.90
11067;DHT22;29763;50.904;5.530;2023-01-01T18:06:20;11.30;99.90
11067;DHT22;29763;50.904;5.530;2023-01-01T18:08:46;11.30;99.90
11067;DHT22;29763;50.904;5.530;2023-01-01T18:11:13;11.40;99.90
11067;DHT22;29763;50.904;5.530;2023-01-01T18:13:39;11.30;99.90
11067;DHT22;29763;50.904;5.530;2023-01-01T18:16:08;11.30;99.90
11067;DHT22;29763;50.904;5.530;2023-01-01T18:18:39;11.30;99.90
11067;DHT22;29763;50.904;5.530;2023-01-01T18:21:08;11.30;99.90
11067;DHT22;29763;50.904;5.530;2023-01-01T18:23:37;11.40;99.90
11067;DHT22;29763;50.904;5.530;2023-01-01T18:26:05;11.40;99.90
11067;DHT22;29763;50.904;5.530;2023-01-01T18:28:31;11.40;99.90
11067;DHT22;29763;50.904;5.530;2023-01-01T18:31:14;11.50;99.90
11067;DHT22;29763;50.904;5.530;2023-01-01T18:33:41;11.50;99.90
11067;DHT22;29763;50.904;5.530;2023-01-01T18:36:13;11.50;99.90
11067;DHT22;29763;50.904;5.530;2023-01-01T18:38:40;11.50;99.90
11067;DHT22;29763;50.904;5.530;2023-01-01T18:44:40;11.50;99.90